WIII/CGK METAR and TAF weather

Enter ICAO airport designator
Station Type Date Time Source
WIII METAR 2022/05/23 15:00 UTC NOAA

WIII 231500Z 09006KT 7000 FEW020 28/25 Q1010 NOSIG


Station Type Date Time Source
WIII Decoded METAR 2022/05/23 15:00 UTC NOAA

Jakarta / Soekarno-Hatta, Indonesia (WIII) 06-07S 106-39E 8M
May 23, 2022 - 11:00 AM EDT / 2022.05.23 1500 UTC
Wind: from the E (090 degrees) at 7 MPH (6 KT):0
Visibility: 4 mile(s):0
Sky conditions: mostly clear
Temperature: 82 F (28 C)
Dew Point: 77 F (25 C)
Relative Humidity: 83%
Pressure (altimeter): 29.83 in. Hg (1010 hPa)
ob: WIII 231500Z 09006KT 7000 FEW020 28/25 Q1010 NOSIG
cycle: 15

Station Type Date Time Source
WIII TAF 2022/05/23 12:24 UTC NOAA

TAF WIII 231100Z 2312/2418 20006KT 7000 FEW020
BECMG 2316/2318 4000 BR
BECMG 2402/2404 07010KT 9999 NSW

Example: see airport list